createdAt,value
2022-11-07T00:00:23.620Z,100841.50
2022-11-07T00:01:27.818Z,100837.16
2022-11-07T00:02:30.956Z,100831.59
2022-11-07T00:03:33.264Z,100828.38
2022-11-07T00:04:39.852Z,100825.78
2022-11-07T00:05:42.718Z,100835.53
2022-11-07T00:06:46.722Z,100832.47
2022-11-07T00:07:49.773Z,100827.38
2022-11-07T00:08:54.803Z,100823.78
2022-11-07T00:09:57.111Z,100820.16
2022-11-07T00:11:02.731Z,100826.69
2022-11-07T00:12:07.439Z,100823.41
2022-11-07T00:13:10.405Z,100828.31
2022-11-07T00:14:15.724Z,100824.38
2022-11-07T00:15:19.136Z,100825.53
2022-11-07T00:16:21.638Z,100828.38
2022-11-07T00:17:24.857Z,100830.69
2022-11-07T00:18:27.444Z,100829.81
2022-11-07T00:19:36.747Z,100830.31
2022-11-07T00:20:38.839Z,100823.47
2022-11-07T00:21:43.266Z,100836.63
2022-11-07T00:22:45.319Z,100838.56
2022-11-07T00:23:47.554Z,100828.69
2022-11-07T00:24:55.875Z,100822.41
2022-11-07T00:26:04.806Z,100820.91
2022-11-07T00:27:09.752Z,100825.34
2022-11-07T00:28:14.646Z,100821.50
2022-11-07T00:29:19.244Z,100819.41
2022-11-07T00:30:29.755Z,100819.09
2022-11-07T00:31:33.267Z,100826.75
2022-11-07T00:32:35.267Z,100820.78
2022-11-07T00:33:37.583Z,100820.41
2022-11-07T00:34:39.768Z,100822.91
2022-11-07T00:35:43.103Z,100819.97
2022-11-07T00:36:45.461Z,100822.41
2022-11-07T00:37:48.734Z,100820.34
2022-11-07T00:38:50.964Z,100821.03
2022-11-07T00:39:54.155Z,100826.13
2022-11-07T00:41:01.060Z,100824.28
2022-11-07T00:42:06.702Z,100824.97
2022-11-07T00:43:08.855Z,100824.72
2022-11-07T00:44:12.582Z,100822.91
2022-11-07T00:45:18.554Z,100818.63
2022-11-07T00:46:22.459Z,100821.28
2022-11-07T00:47:28.955Z,100826.47
2022-11-07T00:48:34.722Z,100814.94
2022-11-07T00:49:37.507Z,100812.72
2022-11-07T00:50:40.753Z,100817.94
2022-11-07T00:51:42.760Z,100814.00
2022-11-07T00:52:45.001Z,100812.34
2022-11-07T00:53:48.591Z,100816.69
2022-11-07T00:54:51.050Z,100810.84
2022-11-07T00:55:54.012Z,100807.97
2022-11-07T00:56:58.532Z,100812.94
2022-11-07T00:58:01.435Z,100807.88
2022-11-07T00:59:03.579Z,100805.47
2022-11-07T01:00:07.510Z,100800.19
2022-11-07T01:01:21.014Z,100803.28
2022-11-07T01:02:24.759Z,100797.84
2022-11-07T01:03:45.564Z,100803.91
2022-11-07T01:05:06.122Z,100800.34
2022-11-07T01:06:10.910Z,100794.38
2022-11-07T01:07:13.257Z,100801.31
2022-11-07T01:08:18.170Z,100800.00
2022-11-07T01:09:24.170Z,100798.31
2022-11-07T01:10:27.656Z,100792.31
2022-11-07T01:11:31.921Z,100794.00
2022-11-07T01:12:35.144Z,100789.41
2022-11-07T01:13:38.546Z,100786.53
2022-11-07T01:14:42.657Z,100785.56
2022-11-07T01:15:44.606Z,100779.09
2022-11-07T01:16:49.155Z,100783.31
2022-11-07T01:17:52.589Z,100785.56
2022-11-07T01:18:57.987Z,100774.00
2022-11-07T01:20:01.943Z,100778.84
2022-11-07T01:21:15.166Z,100780.94
2022-11-07T01:22:21.574Z,100777.41
2022-11-07T01:23:23.985Z,100777.22
2022-11-07T01:24:27.915Z,100775.44
2022-11-07T01:25:33.320Z,100769.53
2022-11-07T01:26:37.566Z,100771.28
2022-11-07T01:27:42.634Z,100766.00
2022-11-07T01:28:46.328Z,100770.19
2022-11-07T01:29:49.424Z,100768.88
2022-11-07T01:30:51.330Z,100765.22
2022-11-07T01:31:55.621Z,100761.03
2022-11-07T01:33:00.499Z,100762.31
2022-11-07T01:34:02.762Z,100753.16
2022-11-07T01:35:05.468Z,100760.53
2022-11-07T01:36:10.370Z,100767.00
2022-11-07T01:37:12.550Z,100754.44
2022-11-07T01:38:14.714Z,100759.22
2022-11-07T01:39:18.570Z,100762.00
2022-11-07T01:40:20.922Z,100745.38
2022-11-07T01:41:32.581Z,100759.91
2022-11-07T01:42:34.677Z,100749.94
2022-11-07T01:43:52.145Z,100757.44
2022-11-07T01:44:58.316Z,100750.06
2022-11-07T01:46:00.269Z,100750.84
2022-11-07T01:47:02.391Z,100746.69
2022-11-07T01:48:05.249Z,100753.03
2022-11-07T01:49:24.081Z,100761.88
2022-11-07T01:50:27.822Z,100758.09
2022-11-07T01:51:37.599Z,100748.63
2022-11-07T01:52:45.795Z,100751.56
2022-11-07T01:53:49.818Z,100756.84
2022-11-07T01:54:57.650Z,100764.06
2022-11-07T01:55:59.954Z,100755.72
2022-11-07T01:57:14.141Z,100749.06
2022-11-07T01:58:18.211Z,100763.72
2022-11-07T01:59:24.071Z,100753.91
2022-11-07T02:00:26.779Z,100754.44
2022-11-07T02:01:30.616Z,100757.00
2022-11-07T02:02:34.065Z,100750.03
2022-11-07T02:03:36.353Z,100755.41
2022-11-07T02:04:39.099Z,100756.69
2022-11-07T02:05:47.366Z,100753.50
2022-11-07T02:07:01.069Z,100755.50
2022-11-07T02:08:06.611Z,100744.25
2022-11-07T02:09:08.999Z,100748.63
2022-11-07T02:10:11.740Z,100756.69
2022-11-07T02:11:17.506Z,100750.84
2022-11-07T02:12:23.543Z,100743.78
2022-11-07T02:13:27.927Z,100745.22
2022-11-07T02:14:39.278Z,100748.44
2022-11-07T02:15:41.288Z,100748.97
2022-11-07T02:16:49.648Z,100747.03
2022-11-07T02:17:51.952Z,100738.81
2022-11-07T02:18:56.431Z,100753.16
2022-11-07T02:19:59.427Z,100744.59
2022-11-07T02:21:18.439Z,100739.50
2022-11-07T02:22:26.497Z,100738.38
2022-11-07T02:23:42.197Z,100744.56
2022-11-07T02:24:44.890Z,100741.53
2022-11-07T02:25:47.251Z,100729.28
2022-11-07T02:26:51.466Z,100737.34
2022-11-07T02:28:01.301Z,100739.47
2022-11-07T02:29:09.167Z,100745.56
2022-11-07T02:30:33.926Z,100735.44
2022-11-07T02:31:36.128Z,100736.59
2022-11-07T02:32:40.274Z,100737.69
2022-11-07T02:33:43.980Z,100732.00
2022-11-07T02:34:46.195Z,100741.03
2022-11-07T02:35:52.124Z,100732.84
2022-11-07T02:36:54.352Z,100734.28
2022-11-07T02:37:56.645Z,100730.94
2022-11-07T02:39:01.847Z,100728.56
2022-11-07T02:40:08.335Z,100725.63
2022-11-07T02:41:15.676Z,100724.44
2022-11-07T02:42:20.826Z,100727.53
2022-11-07T02:43:27.260Z,100729.00
2022-11-07T02:44:30.908Z,100730.28
2022-11-07T02:45:41.822Z,100727.72
2022-11-07T02:46:43.895Z,100724.53
2022-11-07T02:47:46.145Z,100730.63
2022-11-07T02:48:51.494Z,100722.13
2022-11-07T02:49:53.414Z,100722.94
2022-11-07T02:50:56.285Z,100728.06
2022-11-07T02:52:01.232Z,100728.22
2022-11-07T02:53:04.885Z,100721.13
2022-11-07T02:54:07.018Z,100720.81
2022-11-07T02:55:09.635Z,100720.81
2022-11-07T02:56:11.804Z,100715.84
2022-11-07T02:57:16.227Z,100720.84
2022-11-07T02:58:20.039Z,100716.19
2022-11-07T02:59:26.845Z,100720.22
2022-11-07T03:00:29.246Z,100715.22
2022-11-07T03:01:31.360Z,100719.53
2022-11-07T03:02:33.794Z,100719.53
2022-11-07T03:03:45.346Z,100719.22
2022-11-07T03:04:49.195Z,100716.50
2022-11-07T03:05:51.411Z,100718.13
2022-11-07T03:06:53.363Z,100720.00
2022-11-07T03:07:57.012Z,100725.13
2022-11-07T03:08:59.128Z,100718.41
2022-11-07T03:10:01.156Z,100718.72
2022-11-07T03:11:03.857Z,100721.31
2022-11-07T03:12:07.024Z,100723.06
2022-11-07T03:13:10.138Z,100718.06
2022-11-07T03:14:12.357Z,100720.00
2022-11-07T03:15:17.565Z,100715.22
2022-11-07T03:16:20.371Z,100712.31
2022-11-07T03:17:25.021Z,100714.22
2022-11-07T03:18:27.195Z,100709.91
2022-11-07T03:19:29.183Z,100715.69
2022-11-07T03:20:31.720Z,100711.69
2022-11-07T03:21:34.766Z,100712.94
2022-11-07T03:22:38.079Z,100714.63
2022-11-07T03:23:40.156Z,100707.38
2022-11-07T03:24:42.130Z,100709.41
2022-11-07T03:25:44.074Z,100711.19
2022-11-07T03:26:46.010Z,100710.72
2022-11-07T03:27:49.045Z,100706.19
2022-11-07T03:28:51.132Z,100710.38
2022-11-07T03:29:54.179Z,100705.25
2022-11-07T03:31:00.689Z,100707.03
2022-11-07T03:32:04.158Z,100693.34
2022-11-07T03:33:06.734Z,100703.78
2022-11-07T03:34:09.472Z,100696.53
2022-11-07T03:35:16.012Z,100705.41
2022-11-07T03:36:36.060Z,100692.06
2022-11-07T03:37:39.759Z,100692.38
2022-11-07T03:38:41.910Z,100695.25
2022-11-07T03:39:43.911Z,100692.69
2022-11-07T03:40:46.695Z,100692.53
2022-11-07T03:41:48.690Z,100685.13
2022-11-07T03:42:50.604Z,100678.56
2022-11-07T03:43:52.939Z,100679.84
2022-11-07T03:44:55.278Z,100682.75
2022-11-07T03:45:57.315Z,100683.53
2022-11-07T03:47:01.744Z,100678.56
2022-11-07T03:48:03.971Z,100677.91
2022-11-07T03:49:08.446Z,100680.63
2022-11-07T03:50:13.852Z,100685.66
2022-11-07T03:51:15.835Z,100690.78
2022-11-07T03:52:17.935Z,100681.78
2022-11-07T03:53:25.221Z,100681.78
2022-11-07T03:54:31.088Z,100684.31
2022-11-07T03:55:33.218Z,100680.97
2022-11-07T03:56:35.179Z,100682.25
2022-11-07T03:57:38.707Z,100691.56
2022-11-07T03:58:41.951Z,100695.25
2022-11-07T03:59:44.061Z,100696.88
2022-11-07T04:00:46.005Z,100696.09
2022-11-07T04:01:48.174Z,100705.41
2022-11-07T04:02:52.239Z,100693.81
2022-11-07T04:03:56.371Z,100693.97
2022-11-07T04:05:01.637Z,100696.53
2022-11-07T04:06:03.794Z,100697.88
2022-11-07T04:07:07.512Z,100698.81
2022-11-07T04:08:09.656Z,100696.72
2022-11-07T04:09:12.686Z,100695.31
2022-11-07T04:10:14.790Z,100696.91
2022-11-07T04:11:41.836Z,100695.94
2022-11-07T04:13:03.080Z,100698.19
2022-11-07T04:14:24.335Z,100699.63
2022-11-07T04:15:46.223Z,100699.28
2022-11-07T04:17:09.164Z,100698.81
2022-11-07T04:18:11.211Z,100696.59
2022-11-07T04:19:14.687Z,100694.97
2022-11-07T04:20:16.790Z,100699.94
2022-11-07T04:21:20.317Z,100698.81
2022-11-07T04:22:27.185Z,100697.66
2022-11-07T04:23:29.130Z,100690.63
2022-11-07T04:24:32.302Z,100702.16
2022-11-07T04:25:53.203Z,100690.13
2022-11-07T04:27:13.869Z,100691.06
2022-11-07T04:28:19.083Z,100698.81
2022-11-07T04:29:22.586Z,100695.09
2022-11-07T04:30:28.267Z,100693.69
2022-11-07T04:31:33.487Z,100698.00
2022-11-07T04:32:36.095Z,100702.34
2022-11-07T04:33:38.331Z,100705.41
2022-11-07T04:34:44.714Z,100702.22
2022-11-07T04:35:56.262Z,100701.41
2022-11-07T04:36:58.317Z,100696.91
2022-11-07T04:38:01.217Z,100692.41
2022-11-07T04:39:09.085Z,100704.63
2022-11-07T04:40:11.779Z,100698.66
2022-11-07T04:41:23.220Z,100706.06
2022-11-07T04:42:25.162Z,100699.78
2022-11-07T04:43:28.619Z,100698.66
2022-11-07T04:44:30.850Z,100699.16
2022-11-07T04:45:37.302Z,100703.00
2022-11-07T04:46:39.310Z,100697.22
2022-11-07T04:47:41.377Z,100698.38
2022-11-07T04:48:44.599Z,100696.25
2022-11-07T04:49:47.575Z,100701.22
2022-11-07T04:50:50.989Z,100703.19
2022-11-07T04:52:03.590Z,100703.97
2022-11-07T04:53:06.526Z,100704.47
2022-11-07T04:54:13.719Z,100697.88
2022-11-07T04:55:30.829Z,100691.91
2022-11-07T04:56:34.774Z,100705.59
2022-11-07T04:57:38.368Z,100695.94
2022-11-07T04:58:44.408Z,100692.06
2022-11-07T04:59:46.763Z,100699.78
2022-11-07T05:00:48.756Z,100704.28
2022-11-07T05:01:53.500Z,100700.28
2022-11-07T05:02:56.021Z,100694.00
2022-11-07T05:03:58.472Z,100697.69
2022-11-07T05:05:02.224Z,100693.34
2022-11-07T05:06:05.069Z,100689.66
2022-11-07T05:07:08.093Z,100698.03
2022-11-07T05:08:10.057Z,100690.63
2022-11-07T05:09:16.875Z,100689.81
2022-11-07T05:10:26.789Z,100691.13
2022-11-07T05:11:30.855Z,100697.53
2022-11-07T05:12:32.862Z,100692.22
2022-11-07T05:13:35.242Z,100699.81
2022-11-07T05:14:39.640Z,100700.75
2022-11-07T05:15:41.645Z,100694.00
2022-11-07T05:16:45.607Z,100698.81
2022-11-07T05:17:47.639Z,100699.47
2022-11-07T05:18:49.591Z,100694.47
2022-11-07T05:19:53.190Z,100691.44
2022-11-07T05:20:59.946Z,100690.28
2022-11-07T05:22:23.694Z,100687.88
2022-11-07T05:23:28.682Z,100696.91
2022-11-07T05:24:30.585Z,100699.31
2022-11-07T05:25:32.725Z,100693.84
2022-11-07T05:26:34.747Z,100698.19
2022-11-07T05:27:36.715Z,100700.13
2022-11-07T05:28:39.967Z,100691.44
2022-11-07T05:29:42.004Z,100698.81
2022-11-07T05:30:45.033Z,100686.94
2022-11-07T05:31:49.279Z,100701.09
2022-11-07T05:32:52.856Z,100697.53
2022-11-07T05:33:54.913Z,100698.03
2022-11-07T05:34:56.813Z,100692.53
2022-11-07T05:36:21.458Z,100695.13
2022-11-07T05:37:23.539Z,100696.41
2022-11-07T05:38:25.765Z,100695.28
2022-11-07T05:39:27.664Z,100690.78
2022-11-07T05:40:30.566Z,100695.13
2022-11-07T05:41:32.515Z,100698.03
2022-11-07T05:42:34.670Z,100695.28
2022-11-07T05:43:39.266Z,100695.78
2022-11-07T05:44:43.484Z,100694.81
2022-11-07T05:45:45.625Z,100694.31
2022-11-07T05:46:47.619Z,100699.13
2022-11-07T05:47:56.510Z,100704.13
2022-11-07T05:49:01.131Z,100698.97
2022-11-07T05:50:04.625Z,100698.19
2022-11-07T05:51:08.865Z,100697.56
2022-11-07T05:52:12.884Z,100700.72
2022-11-07T05:53:15.145Z,100695.78
2022-11-07T05:54:25.211Z,100692.41
2022-11-07T05:55:30.482Z,100704.31
2022-11-07T05:56:32.479Z,100700.09
2022-11-07T05:57:34.435Z,100699.81
2022-11-07T05:58:38.873Z,100697.22
2022-11-07T05:59:41.994Z,100702.22
2022-11-07T06:00:45.255Z,100696.22
2022-11-07T06:01:50.941Z,100698.50
2022-11-07T06:03:24.864Z,100698.69
2022-11-07T06:04:27.390Z,100702.69
2022-11-07T06:05:30.126Z,100702.53
2022-11-07T06:06:33.503Z,100698.50
2022-11-07T06:07:37.228Z,100702.03
2022-11-07T06:08:40.302Z,100700.13
2022-11-07T06:09:44.376Z,100700.88
2022-11-07T06:10:46.397Z,100700.44
2022-11-07T06:11:48.317Z,100700.44
2022-11-07T06:13:01.696Z,100699.44
2022-11-07T06:14:03.927Z,100695.94
2022-11-07T06:15:08.264Z,100698.19
2022-11-07T06:16:10.240Z,100701.06
2022-11-07T06:17:12.147Z,100691.56
2022-11-07T06:18:18.400Z,100704.59
2022-11-07T06:19:22.726Z,100705.44
2022-11-07T06:20:24.646Z,100698.69
2022-11-07T06:21:28.721Z,100697.03
2022-11-07T06:22:32.091Z,100699.78
2022-11-07T06:23:34.228Z,100695.78
2022-11-07T06:24:36.166Z,100703.97
2022-11-07T06:25:48.115Z,100704.75
2022-11-07T06:26:50.122Z,100711.38
2022-11-07T06:27:52.490Z,100702.19
2022-11-07T06:28:54.439Z,100707.34
2022-11-07T06:29:56.510Z,100711.53
2022-11-07T06:31:02.299Z,100722.00
2022-11-07T06:32:04.423Z,100713.97
2022-11-07T06:33:11.426Z,100716.22
2022-11-07T06:34:13.902Z,100718.97
2022-11-07T06:35:15.932Z,100716.72
2022-11-07T06:36:19.481Z,100713.94
2022-11-07T06:37:26.128Z,100712.34
2022-11-07T06:38:34.629Z,100716.84
2022-11-07T06:39:36.638Z,100710.75
2022-11-07T06:40:39.865Z,100718.97
2022-11-07T06:41:42.358Z,100708.50
2022-11-07T06:42:44.551Z,100713.31
2022-11-07T06:43:46.553Z,100709.28
2022-11-07T06:44:48.716Z,100707.69
2022-11-07T06:45:50.650Z,100712.19
2022-11-07T06:46:53.895Z,100710.09
2022-11-07T06:47:56.052Z,100710.09
2022-11-07T06:48:58.006Z,100706.72
2022-11-07T06:50:00.264Z,100704.47
2022-11-07T06:51:04.444Z,100705.75
2022-11-07T06:52:07.240Z,100698.47
2022-11-07T06:53:13.960Z,100702.81
2022-11-07T06:54:16.440Z,100705.41
2022-11-07T06:55:18.523Z,100710.88
2022-11-07T06:56:20.802Z,100708.97
2022-11-07T06:57:34.170Z,100701.38
2022-11-07T06:58:37.446Z,100696.22
2022-11-07T06:59:39.482Z,100690.78
2022-11-07T07:00:41.562Z,100696.25
2022-11-07T07:01:43.770Z,100701.88
2022-11-07T07:02:57.956Z,100696.53
2022-11-07T07:04:03.791Z,100696.06
2022-11-07T07:05:07.382Z,100688.81
2022-11-07T07:06:16.948Z,100692.03
2022-11-07T07:07:21.122Z,100684.78
2022-11-07T07:08:23.334Z,100682.88
2022-11-07T07:09:25.321Z,100689.13
2022-11-07T07:10:27.637Z,100684.00
2022-11-07T07:11:32.209Z,100687.19
2022-11-07T07:12:34.691Z,100683.03
2022-11-07T07:13:37.018Z,100677.69
2022-11-07T07:14:39.232Z,100685.41
2022-11-07T07:15:51.553Z,100687.19
2022-11-07T07:17:22.131Z,100691.53
2022-11-07T07:18:29.351Z,100676.50
2022-11-07T07:19:36.317Z,100679.44
2022-11-07T07:24:35.931Z,100676.41
2022-11-07T07:28:46.043Z,100687.44
2022-11-07T07:29:48.315Z,100686.34
2022-11-07T07:30:52.003Z,100681.66
2022-11-07T07:31:55.338Z,100677.13
2022-11-07T07:32:58.356Z,100681.00
2022-11-07T07:34:01.969Z,100679.03
2022-11-07T07:35:05.220Z,100680.66
2022-11-07T07:36:08.009Z,100679.53
2022-11-07T07:37:13.283Z,100681.66
2022-11-07T07:38:15.302Z,100674.94
2022-11-07T07:39:17.489Z,100682.16
2022-11-07T07:40:21.373Z,100682.97
2022-11-07T07:41:23.516Z,100684.06
2022-11-07T07:42:25.980Z,100676.66
2022-11-07T07:43:30.158Z,100682.44
2022-11-07T07:44:32.320Z,100680.34
2022-11-07T07:45:34.305Z,100682.72
2022-11-07T07:46:36.538Z,100683.03
2022-11-07T07:47:38.793Z,100686.06
2022-11-07T07:48:41.109Z,100689.97
2022-11-07T07:49:43.080Z,100686.59
2022-11-07T07:50:48.841Z,100680.47
2022-11-07T07:51:51.028Z,100691.72
2022-11-07T07:52:57.693Z,100694.09
2022-11-07T07:53:59.820Z,100693.44
2022-11-07T07:55:02.140Z,100693.34
2022-11-07T07:56:06.775Z,100698.03
2022-11-07T07:57:08.746Z,100697.53
2022-11-07T07:58:12.281Z,100693.78
2022-11-07T07:59:14.466Z,100695.84
2022-11-07T08:00:16.889Z,100696.91
2022-11-07T08:01:19.017Z,100699.94
2022-11-07T08:02:21.620Z,100696.38
2022-11-07T08:03:23.691Z,100687.97
2022-11-07T08:04:27.574Z,100691.16
2022-11-07T08:05:31.233Z,100698.31
2022-11-07T08:06:35.472Z,100699.09
2022-11-07T08:07:46.712Z,100693.75
2022-11-07T08:08:48.613Z,100697.91
2022-11-07T08:09:51.436Z,100690.13
2022-11-07T08:11:22.484Z,100686.47
2022-11-07T08:12:24.579Z,100685.69
2022-11-07T08:13:27.320Z,100684.41
2022-11-07T08:14:29.614Z,100683.28
2022-11-07T08:16:05.536Z,100678.63
2022-11-07T08:17:08.230Z,100679.03
2022-11-07T08:18:11.063Z,100676.63
2022-11-07T08:19:14.637Z,100668.59
2022-11-07T08:20:24.654Z,100677.91
2022-11-07T08:21:26.776Z,100669.38
2022-11-07T08:22:28.721Z,100672.84
2022-11-07T08:23:31.358Z,100672.34
2022-11-07T08:24:33.589Z,100670.09
2022-11-07T08:25:36.054Z,100672.66
2022-11-07T08:26:38.163Z,100677.78
2022-11-07T08:27:40.240Z,100664.91
2022-11-07T08:28:42.351Z,100673.13
2022-11-07T08:29:45.950Z,100667.09
2022-11-07T08:31:12.958Z,100663.56
2022-11-07T08:32:15.586Z,100670.41
2022-11-07T08:33:18.274Z,100662.59
2022-11-07T08:34:21.867Z,100664.13
2022-11-07T08:35:23.922Z,100663.56
2022-11-07T08:36:26.971Z,100660.28
2022-11-07T08:37:28.963Z,100657.44
2022-11-07T08:38:32.586Z,100659.97
2022-11-07T08:39:36.513Z,100660.63
2022-11-07T08:40:39.709Z,100656.34
2022-11-07T08:41:43.889Z,100667.88
2022-11-07T08:42:45.949Z,100661.00
2022-11-07T08:43:48.966Z,100659.50
2022-11-07T08:44:50.939Z,100660.53
2022-11-07T08:45:54.912Z,100664.41
2022-11-07T08:46:58.531Z,100661.19
2022-11-07T08:48:01.142Z,100659.25
2022-11-07T08:49:03.269Z,100661.19
2022-11-07T08:50:05.901Z,100657.97
2022-11-07T08:51:07.814Z,100663.66
2022-11-07T08:52:09.813Z,100660.63
2022-11-07T08:53:12.272Z,100667.53
2022-11-07T08:54:15.865Z,100662.13
2022-11-07T08:55:19.189Z,100660.44
2022-11-07T08:56:23.638Z,100666.66
2022-11-07T08:57:25.774Z,100664.78
2022-11-07T08:58:30.165Z,100661.34
2022-11-07T08:59:33.699Z,100656.63
2022-11-07T09:00:36.791Z,100655.50
2022-11-07T09:01:56.155Z,100659.66
2022-11-07T09:04:30.442Z,100658.94
2022-11-07T09:05:34.444Z,100653.03
2022-11-07T09:06:36.580Z,100650.06
2022-11-07T09:07:39.882Z,100663.34
2022-11-07T09:08:42.581Z,100659.31
2022-11-07T09:09:45.175Z,100666.47
2022-11-07T09:10:47.165Z,100662.19
2022-11-07T09:11:49.389Z,100661.88
2022-11-07T09:12:51.913Z,100665.78
2022-11-07T09:13:55.483Z,100667.59
2022-11-07T09:14:57.517Z,100654.66
2022-11-07T09:16:06.027Z,100661.63
2022-11-07T09:17:08.269Z,100666.16
2022-11-07T09:18:10.194Z,100658.72
2022-11-07T09:19:12.296Z,100659.94
2022-11-07T09:20:15.612Z,100655.84
2022-11-07T09:21:22.341Z,100662.53
2022-11-07T09:22:25.095Z,100657.09
2022-11-07T09:23:27.917Z,100663.47
2022-11-07T09:24:29.916Z,100662.13
2022-11-07T09:25:33.654Z,100657.97
2022-11-07T09:26:35.740Z,100655.44
2022-11-07T09:27:38.048Z,100658.88
2022-11-07T09:28:40.115Z,100663.03
2022-11-07T09:29:43.588Z,100662.13
2022-11-07T09:30:45.628Z,100662.13
2022-11-07T09:31:49.808Z,100656.63
2022-11-07T09:32:55.597Z,100656.44
2022-11-07T09:33:57.472Z,100648.16
2022-11-07T09:35:04.903Z,100656.78
2022-11-07T09:36:07.646Z,100654.50
2022-11-07T09:37:09.601Z,100655.44
2022-11-07T09:38:11.660Z,100648.47
2022-11-07T09:39:16.923Z,100642.75
2022-11-07T09:40:33.803Z,100650.56
2022-11-07T09:42:03.566Z,100648.75
2022-11-07T09:43:26.059Z,100647.13
2022-11-07T09:44:41.182Z,100651.16
2022-11-07T09:46:05.476Z,100641.31
2022-11-07T09:47:19.574Z,100647.81
2022-11-07T09:48:31.988Z,100647.34
2022-11-07T09:49:43.786Z,100646.41
2022-11-07T09:50:49.764Z,100651.81
2022-11-07T09:52:04.466Z,100647.03
2022-11-07T09:53:16.812Z,100643.19
2022-11-07T09:54:22.270Z,100644.88
2022-11-07T09:55:29.545Z,100640.44
2022-11-07T09:56:33.068Z,100639.66
2022-11-07T09:57:37.631Z,100644.16
2022-11-07T09:58:54.878Z,100633.84
2022-11-07T10:00:04.536Z,100636.19
2022-11-07T10:01:12.912Z,100635.69
2022-11-07T10:02:19.213Z,100633.97
2022-11-07T10:03:23.705Z,100639.03
2022-11-07T10:04:27.427Z,100640.25
2022-11-07T10:05:54.446Z,100636.16
2022-11-07T10:07:12.974Z,100642.81
2022-11-07T10:08:23.815Z,100641.53
2022-11-07T10:09:37.811Z,100634.31
2022-11-07T10:11:00.140Z,100638.09
2022-11-07T10:12:32.139Z,100645.47
2022-11-07T10:13:52.431Z,100637.34
2022-11-07T10:15:19.632Z,100644.59
2022-11-07T10:16:51.361Z,100648.06
2022-11-07T10:18:07.289Z,100643.13
2022-11-07T10:19:48.343Z,100641.22
2022-11-07T10:21:36.361Z,100635.50
2022-11-07T10:22:39.929Z,100627.44
2022-11-07T10:24:05.663Z,100633.06
2022-11-07T10:25:16.762Z,100639.91
2022-11-07T10:26:22.325Z,100640.03
2022-11-07T10:27:24.480Z,100636.03
2022-11-07T10:28:31.013Z,100635.50
2022-11-07T10:29:47.086Z,100632.75
2022-11-07T10:30:51.987Z,100623.28
2022-11-07T10:32:20.418Z,100628.72
2022-11-07T10:33:59.539Z,100634.53
2022-11-07T10:35:06.631Z,100628.69
2022-11-07T10:36:18.104Z,100623.97
2022-11-07T10:37:21.270Z,100631.25
2022-11-07T10:38:31.630Z,100630.09
2022-11-07T10:39:33.880Z,100629.09
2022-11-07T10:40:40.703Z,100637.81
2022-11-07T10:41:46.218Z,100624.16
2022-11-07T10:42:51.075Z,100631.69
2022-11-07T10:43:58.488Z,100625.94
2022-11-07T10:45:00.471Z,100615.25
2022-11-07T10:46:05.519Z,100626.22
2022-11-07T10:47:23.001Z,100613.94
2022-11-07T10:48:32.374Z,100610.34
2022-11-07T10:49:34.392Z,100614.91
2022-11-07T10:50:38.950Z,100605.50
2022-11-07T10:51:42.684Z,100616.34
2022-11-07T10:52:53.601Z,100622.22
2022-11-07T10:53:55.564Z,100611.66
2022-11-07T10:55:16.078Z,100619.16
2022-11-07T10:56:19.757Z,100625.72
2022-11-07T10:57:23.790Z,100626.09
2022-11-07T10:58:28.826Z,100612.53
2022-11-07T10:59:36.498Z,100615.97
2022-11-07T11:00:44.255Z,100616.38
2022-11-07T11:01:52.458Z,100621.44
2022-11-07T11:02:56.648Z,100613.56
2022-11-07T11:03:58.965Z,100610.94
2022-11-07T11:05:03.874Z,100611.34
2022-11-07T11:06:11.730Z,100613.56
2022-11-07T11:07:13.991Z,100613.00
2022-11-07T11:08:22.024Z,100609.53
2022-11-07T11:09:29.505Z,100608.59
2022-11-07T11:10:31.858Z,100615.34
2022-11-07T11:11:37.358Z,100616.69
2022-11-07T11:12:46.295Z,100614.78
2022-11-07T11:13:51.531Z,100626.22
2022-11-07T11:15:15.704Z,100618.34
2022-11-07T11:16:26.805Z,100617.81
2022-11-07T11:17:30.055Z,100626.38
2022-11-07T11:18:32.275Z,100620.81
2022-11-07T11:19:49.243Z,100627.06
2022-11-07T11:21:03.310Z,100622.84
2022-11-07T11:22:14.920Z,100623.19
2022-11-07T11:23:26.082Z,100625.19
2022-11-07T11:24:39.757Z,100623.38
2022-11-07T11:25:46.938Z,100623.06
2022-11-07T11:26:52.501Z,100617.94
2022-11-07T11:28:08.210Z,100621.03
2022-11-07T11:29:26.561Z,100619.97
2022-11-07T11:30:31.172Z,100622.16
2022-11-07T11:31:44.584Z,100624.44
2022-11-07T11:33:02.341Z,100627.28
2022-11-07T11:34:32.982Z,100620.47
2022-11-07T11:35:56.031Z,100612.03
2022-11-07T11:37:06.772Z,100627.56
2022-11-07T11:38:17.949Z,100621.97
2022-11-07T11:39:36.524Z,100618.75
2022-11-07T11:40:40.909Z,100620.03
2022-11-07T11:41:56.875Z,100624.78
2022-11-07T11:43:20.838Z,100620.91
2022-11-07T11:44:43.361Z,100617.94
2022-11-07T11:46:33.386Z,100621.72
2022-11-07T11:47:41.672Z,100614.47
2022-11-07T11:48:49.563Z,100616.75
2022-11-07T11:49:51.579Z,100615.81
2022-11-07T11:51:00.487Z,100619.22
2022-11-07T11:52:17.161Z,100621.50
2022-11-07T11:53:22.141Z,100622.63
2022-11-07T11:54:24.309Z,100617.41
2022-11-07T11:55:38.844Z,100605.91
2022-11-07T11:57:04.624Z,100607.66
2022-11-07T11:58:09.444Z,100603.50
2022-11-07T11:59:45.191Z,100608.72
2022-11-07T12:01:00.983Z,100607.66
2022-11-07T12:02:11.529Z,100617.72
2022-11-07T12:03:45.213Z,100608.06
2022-11-07T12:04:50.272Z,100603.91
2022-11-07T12:06:07.023Z,100602.03
2022-11-07T12:07:14.009Z,100600.97
2022-11-07T12:09:18.261Z,100590.72
2022-11-07T12:10:34.854Z,100594.19
2022-11-07T12:12:16.673Z,100598.81
2022-11-07T12:16:02.576Z,100603.97
2022-11-07T12:17:18.921Z,100603.19
2022-11-07T12:18:31.993Z,100601.88
2022-11-07T12:20:05.012Z,100600.00
2022-11-07T12:21:14.383Z,100600.81
2022-11-07T12:22:32.109Z,100603.69
2022-11-07T12:23:52.498Z,100604.91
2022-11-07T12:25:06.293Z,100607.75
2022-11-07T12:26:18.268Z,100603.38
2022-11-07T12:27:33.967Z,100599.44
2022-11-07T12:28:50.964Z,100599.56
2022-11-07T12:30:08.794Z,100591.56
2022-11-07T12:31:16.464Z,100597.59
2022-11-07T12:32:31.239Z,100594.16
2022-11-07T12:34:18.411Z,100598.84
2022-11-07T12:35:41.021Z,100598.34
2022-11-07T12:36:55.111Z,100602.22
2022-11-07T12:38:25.880Z,100602.31
2022-11-07T12:39:41.091Z,100596.66
2022-11-07T12:40:51.887Z,100596.94
2022-11-07T12:41:58.364Z,100586.78
2022-11-07T12:43:12.288Z,100592.38
2022-11-07T12:44:42.824Z,100587.97
2022-11-07T12:45:54.771Z,100588.56
2022-11-07T12:47:00.072Z,100597.47
2022-11-07T12:48:13.118Z,100596.28
2022-11-07T12:49:56.718Z,100598.66
2022-11-07T12:51:35.512Z,100593.66
2022-11-07T12:52:40.356Z,100595.13
2022-11-07T12:53:51.385Z,100599.97